createdAt,value
2023-02-03T00:00:00.783Z,4.68
2023-02-03T00:01:03.392Z,5.07
2023-02-03T00:02:05.655Z,4.53
2023-02-03T00:03:08.052Z,3.90
2023-02-03T00:04:10.542Z,4.72
2023-02-03T00:05:12.810Z,3.75
2023-02-03T00:06:15.448Z,4.03
2023-02-03T00:07:17.807Z,3.80
2023-02-03T00:08:20.720Z,4.07
2023-02-03T00:09:23.561Z,3.63
2023-02-03T00:10:26.234Z,4.00
2023-02-03T00:11:31.988Z,3.13
2023-02-03T00:12:34.998Z,3.35
2023-02-03T00:13:37.541Z,3.60
2023-02-03T00:14:40.002Z,3.50
2023-02-03T00:15:42.871Z,3.65
2023-02-03T00:16:45.673Z,3.58
2023-02-03T00:17:48.211Z,3.65
2023-02-03T00:18:50.691Z,3.00
2023-02-03T00:19:53.115Z,3.13
2023-02-03T00:20:55.479Z,2.90
2023-02-03T00:21:58.123Z,3.00
2023-02-03T00:23:08.473Z,3.17
2023-02-03T00:24:10.803Z,3.30
2023-02-03T00:25:13.363Z,3.22
2023-02-03T00:26:17.601Z,2.80
2023-02-03T00:27:20.494Z,2.95
2023-02-03T00:28:23.083Z,3.10
2023-02-03T00:29:26.183Z,2.97
2023-02-03T00:30:28.879Z,3.05
2023-02-03T00:31:31.301Z,2.90
2023-02-03T00:32:33.677Z,2.92
2023-02-03T00:33:36.163Z,2.67
2023-02-03T00:34:38.563Z,2.50
2023-02-03T00:35:41.807Z,2.70
2023-02-03T00:36:44.291Z,2.80
2023-02-03T00:37:53.957Z,2.78
2023-02-03T00:38:56.907Z,3.13
2023-02-03T00:39:59.283Z,2.63
2023-02-03T00:41:01.968Z,3.13
2023-02-03T00:42:05.424Z,2.80
2023-02-03T00:43:07.990Z,2.78
2023-02-03T00:44:10.706Z,2.47
2023-02-03T00:45:13.109Z,2.78
2023-02-03T00:46:16.204Z,2.75
2023-02-03T00:47:18.841Z,2.60
2023-02-03T00:48:21.355Z,2.45
2023-02-03T00:49:23.682Z,2.40
2023-02-03T00:50:26.444Z,2.63
2023-02-03T00:51:29.128Z,2.72
2023-02-03T00:52:31.517Z,2.88
2023-02-03T00:53:33.967Z,2.83
2023-02-03T00:54:36.997Z,2.92
2023-02-03T00:55:39.387Z,2.63
2023-02-03T00:56:41.975Z,2.75
2023-02-03T00:57:44.512Z,2.50
2023-02-03T00:58:47.036Z,2.42
2023-02-03T00:59:49.675Z,2.55
2023-02-03T01:00:52.190Z,2.50
2023-02-03T01:01:54.837Z,2.58
2023-02-03T01:02:57.398Z,2.45
2023-02-03T01:04:00.255Z,2.97
2023-02-03T01:05:02.647Z,2.60
2023-02-03T01:06:15.334Z,2.50
2023-02-03T01:07:17.752Z,2.45
2023-02-03T01:08:20.952Z,2.40
2023-02-03T01:09:24.298Z,2.88
2023-02-03T01:10:29.750Z,2.80
2023-02-03T01:11:33.293Z,2.83
2023-02-03T01:12:35.733Z,2.70
2023-02-03T01:13:38.273Z,2.60
2023-02-03T01:14:44.305Z,2.28
2023-02-03T01:15:48.250Z,2.83
2023-02-03T01:16:50.666Z,2.33
2023-02-03T01:17:53.318Z,2.63
2023-02-03T01:18:56.455Z,2.40
2023-02-03T01:19:58.854Z,2.38
2023-02-03T01:21:09.450Z,2.50
2023-02-03T01:23:13.861Z,2.50
2023-02-03T01:24:16.599Z,2.22
2023-02-03T01:25:20.250Z,2.83
2023-02-03T01:26:24.378Z,3.22
2023-02-03T01:27:26.863Z,2.67
2023-02-03T01:28:31.652Z,3.03
2023-02-03T01:29:34.662Z,2.70
2023-02-03T01:30:37.004Z,2.42
2023-02-03T01:31:42.569Z,2.80
2023-02-03T01:32:45.296Z,2.50
2023-02-03T01:33:48.824Z,3.20
2023-02-03T01:34:51.333Z,2.50
2023-02-03T01:35:53.754Z,2.53
2023-02-03T01:36:56.299Z,2.53
2023-02-03T01:37:59.676Z,2.75
2023-02-03T01:39:02.744Z,2.67
2023-02-03T01:40:05.618Z,2.88
2023-02-03T01:41:13.140Z,2.85
2023-02-03T01:42:16.179Z,3.00
2023-02-03T01:43:36.579Z,3.40
2023-02-03T01:44:48.152Z,2.97
2023-02-03T01:45:50.523Z,2.88
2023-02-03T01:46:53.099Z,2.60
2023-02-03T01:47:57.950Z,2.80
2023-02-03T01:49:21.809Z,3.03
2023-02-03T01:50:37.716Z,2.75
2023-02-03T01:51:43.348Z,3.15
2023-02-03T01:52:51.109Z,2.92
2023-02-03T01:53:54.972Z,3.25
2023-02-03T01:54:59.186Z,2.70
2023-02-03T01:56:02.543Z,3.20
2023-02-03T01:57:14.133Z,2.92
2023-02-03T01:58:21.568Z,2.90
2023-02-03T01:59:25.044Z,2.70
2023-02-03T02:00:27.927Z,2.80
2023-02-03T02:01:32.263Z,3.15
2023-02-03T02:02:35.766Z,2.80
2023-02-03T02:03:49.734Z,3.05
2023-02-03T02:05:09.997Z,2.58
2023-02-03T02:06:14.598Z,3.40
2023-02-03T02:07:17.597Z,2.80
2023-02-03T02:08:22.846Z,3.28
2023-02-03T02:09:27.092Z,2.60
2023-02-03T02:10:30.830Z,2.78
2023-02-03T02:11:34.868Z,3.50
2023-02-03T02:12:37.548Z,3.60
2023-02-03T02:13:40.545Z,3.30
2023-02-03T02:14:44.708Z,3.38
2023-02-03T02:15:53.241Z,3.60
2023-02-03T02:17:01.244Z,3.83
2023-02-03T02:18:24.963Z,3.33
2023-02-03T02:20:05.677Z,3.28
2023-02-03T02:21:11.140Z,3.15
2023-02-03T02:23:01.135Z,3.40
2023-02-03T02:24:15.294Z,2.78
2023-02-03T02:25:37.039Z,3.65
2023-02-03T02:27:04.338Z,2.83
2023-02-03T02:28:33.546Z,3.10
2023-02-03T02:30:04.530Z,2.83
2023-02-03T02:31:35.005Z,3.05
2023-02-03T02:32:43.693Z,2.70
2023-02-03T02:34:12.177Z,2.97
2023-02-03T02:35:15.157Z,3.10
2023-02-03T02:36:26.418Z,3.28
2023-02-03T02:38:05.091Z,3.10
2023-02-03T02:39:34.335Z,3.28
2023-02-03T02:41:13.352Z,2.67
2023-02-03T02:42:43.080Z,3.47
2023-02-03T02:43:51.874Z,3.00
2023-02-03T02:45:14.416Z,3.03
2023-02-03T02:46:24.550Z,2.97
2023-02-03T02:47:27.570Z,2.55
2023-02-03T02:48:46.125Z,2.80
2023-02-03T02:49:57.176Z,3.00
2023-02-03T02:51:01.612Z,3.40
2023-02-03T02:52:06.537Z,3.75
2023-02-03T02:53:10.271Z,2.90
2023-02-03T02:54:18.003Z,3.30
2023-02-03T02:55:28.359Z,3.25
2023-02-03T02:56:37.059Z,3.08
2023-02-03T02:57:40.159Z,3.10
2023-02-03T02:58:45.122Z,3.05
2023-02-03T02:59:48.751Z,3.47
2023-02-03T03:00:51.771Z,2.88
2023-02-03T03:01:54.348Z,3.40
2023-02-03T03:02:57.726Z,3.10
2023-02-03T03:04:03.901Z,3.47
2023-02-03T03:05:11.385Z,2.95
2023-02-03T03:06:26.239Z,3.58
2023-02-03T03:07:32.404Z,3.15
2023-02-03T03:08:47.867Z,3.22
2023-02-03T03:09:56.063Z,3.28
2023-02-03T03:11:02.713Z,3.22
2023-02-03T03:12:19.696Z,2.97
2023-02-03T03:13:29.805Z,3.47
2023-02-03T03:14:32.765Z,3.35
2023-02-03T03:15:36.419Z,3.08
2023-02-03T03:16:44.609Z,3.92
2023-02-03T03:17:54.904Z,3.80
2023-02-03T03:19:02.970Z,3.08
2023-02-03T03:20:11.045Z,3.75
2023-02-03T03:21:19.965Z,4.10
2023-02-03T03:22:27.594Z,3.85
2023-02-03T03:23:35.567Z,3.70
2023-02-03T03:24:53.003Z,3.75
2023-02-03T03:26:04.632Z,4.00
2023-02-03T03:27:18.471Z,3.55
2023-02-03T03:28:31.049Z,3.78
2023-02-03T03:29:36.573Z,3.67
2023-02-03T03:30:39.616Z,3.60
2023-02-03T03:31:42.308Z,3.40
2023-02-03T03:32:45.360Z,3.83
2023-02-03T03:33:48.691Z,4.25
2023-02-03T03:34:52.722Z,3.80
2023-02-03T03:36:16.174Z,3.30
2023-02-03T03:37:29.070Z,4.00
2023-02-03T03:38:42.787Z,3.50
2023-02-03T03:40:03.147Z,3.88
2023-02-03T03:41:16.003Z,3.42
2023-02-03T03:42:36.598Z,4.45
2023-02-03T03:43:42.433Z,3.60
2023-02-03T03:45:01.219Z,3.63
2023-02-03T03:46:28.472Z,4.25
2023-02-03T03:47:44.809Z,3.42
2023-02-03T03:49:03.495Z,3.75
2023-02-03T03:50:10.325Z,3.10
2023-02-03T03:51:20.579Z,3.72
2023-02-03T03:52:30.299Z,3.90
2023-02-03T03:53:34.822Z,4.50
2023-02-03T03:54:38.747Z,4.45
2023-02-03T03:55:43.322Z,4.30
2023-02-03T03:57:00.651Z,4.25
2023-02-03T03:58:17.144Z,3.85
2023-02-03T03:59:21.838Z,4.15
2023-02-03T04:00:28.159Z,3.65
2023-02-03T04:01:31.835Z,4.10
2023-02-03T04:02:36.759Z,3.90
2023-02-03T04:03:44.582Z,3.67
2023-02-03T04:04:49.597Z,4.15
2023-02-03T04:05:52.035Z,3.50
2023-02-03T04:06:55.021Z,4.10
2023-02-03T04:07:57.447Z,3.75
2023-02-03T04:08:59.859Z,3.63
2023-02-03T04:10:04.578Z,3.67
2023-02-03T04:11:07.932Z,3.50
2023-02-03T04:12:30.501Z,4.47
2023-02-03T04:13:32.853Z,3.85
2023-02-03T04:14:38.988Z,4.07
2023-02-03T04:15:41.630Z,3.85
2023-02-03T04:16:44.106Z,4.00
2023-02-03T04:17:46.642Z,4.15
2023-02-03T04:18:48.818Z,3.65
2023-02-03T04:19:51.813Z,3.72
2023-02-03T04:20:54.224Z,3.85
2023-02-03T04:21:56.748Z,3.88
2023-02-03T04:22:59.768Z,3.42
2023-02-03T04:24:02.118Z,3.88
2023-02-03T04:25:08.294Z,4.43
2023-02-03T04:26:10.746Z,3.63
2023-02-03T04:27:13.353Z,3.58
2023-02-03T04:28:15.870Z,3.85
2023-02-03T04:29:18.350Z,3.72
2023-02-03T04:30:20.720Z,3.90
2023-02-03T04:31:23.138Z,3.67
2023-02-03T04:32:25.506Z,3.65
2023-02-03T04:33:28.208Z,3.80
2023-02-03T04:34:30.562Z,3.65
2023-02-03T04:35:33.111Z,4.13
2023-02-03T04:36:35.443Z,3.72
2023-02-03T04:37:37.899Z,4.45
2023-02-03T04:38:40.497Z,3.95
2023-02-03T04:39:42.924Z,4.30
2023-02-03T04:40:46.567Z,3.88
2023-02-03T04:41:48.885Z,3.92
2023-02-03T04:42:51.159Z,4.57
2023-02-03T04:43:53.438Z,4.30
2023-02-03T04:44:55.766Z,3.78
2023-02-03T04:46:01.195Z,3.90
2023-02-03T04:47:04.338Z,3.45
2023-02-03T04:48:06.815Z,4.22
2023-02-03T04:49:11.781Z,3.80
2023-02-03T04:50:14.135Z,3.63
2023-02-03T04:51:16.623Z,3.95
2023-02-03T04:52:18.916Z,4.15
2023-02-03T04:53:21.445Z,4.57
2023-02-03T04:54:23.848Z,4.25
2023-02-03T04:55:29.952Z,4.68
2023-02-03T04:56:32.328Z,4.38
2023-02-03T04:57:34.894Z,5.07
2023-02-03T04:58:37.895Z,5.18
2023-02-03T04:59:40.524Z,5.30
2023-02-03T05:00:42.885Z,5.85
2023-02-03T05:01:45.181Z,6.18
2023-02-03T05:02:47.709Z,7.55
2023-02-03T05:03:50.367Z,7.65
2023-02-03T05:04:52.830Z,8.70
2023-02-03T05:05:57.322Z,9.70
2023-02-03T05:06:59.712Z,10.25
2023-02-03T05:08:02.026Z,8.30
2023-02-03T05:09:04.534Z,8.15
2023-02-03T05:10:07.352Z,7.18
2023-02-03T05:11:09.981Z,7.15
2023-02-03T05:12:12.495Z,6.30
2023-02-03T05:13:14.996Z,6.70
2023-02-03T05:14:17.317Z,6.93
2023-02-03T05:15:19.592Z,6.13
2023-02-03T05:16:22.187Z,7.25
2023-02-03T05:17:24.587Z,6.55
2023-02-03T05:18:27.216Z,7.07
2023-02-03T05:19:29.701Z,6.15
2023-02-03T05:20:32.626Z,6.95
2023-02-03T05:21:35.484Z,7.82
2023-02-03T05:22:37.953Z,8.05
2023-02-03T05:23:40.391Z,8.25
2023-02-03T05:24:42.729Z,8.05
2023-02-03T05:25:46.074Z,8.75
2023-02-03T05:26:48.601Z,8.65
2023-02-03T05:27:51.082Z,7.95
2023-02-03T05:28:55.032Z,8.48
2023-02-03T05:29:58.660Z,9.05
2023-02-03T05:31:02.100Z,9.50
2023-02-03T05:32:04.831Z,9.93
2023-02-03T05:33:07.514Z,10.00
2023-02-03T05:34:09.949Z,9.13
2023-02-03T05:35:12.485Z,8.25
2023-02-03T05:36:14.907Z,7.80
2023-02-03T05:37:17.670Z,7.43
2023-02-03T05:38:20.889Z,7.43
2023-02-03T05:39:23.408Z,7.55
2023-02-03T05:40:44.776Z,7.68
2023-02-03T05:41:53.692Z,8.25
2023-02-03T05:42:56.184Z,7.70
2023-02-03T05:43:58.599Z,7.65
2023-02-03T05:45:00.916Z,8.07
2023-02-03T05:46:06.097Z,6.80
2023-02-03T05:47:08.708Z,6.90
2023-02-03T05:48:11.632Z,7.10
2023-02-03T05:49:14.160Z,7.97
2023-02-03T05:50:16.669Z,7.82
2023-02-03T05:51:19.173Z,7.32
2023-02-03T05:52:21.638Z,7.78
2023-02-03T05:53:24.000Z,8.27
2023-02-03T05:54:26.469Z,7.82
2023-02-03T05:55:30.291Z,8.25
2023-02-03T05:56:32.731Z,8.88
2023-02-03T05:57:35.034Z,9.35
2023-02-03T05:58:37.966Z,9.05
2023-02-03T05:59:40.328Z,8.85
2023-02-03T06:00:42.900Z,7.90
2023-02-03T06:01:45.326Z,8.15
2023-02-03T06:02:55.563Z,7.50
2023-02-03T06:03:57.961Z,9.15
2023-02-03T06:05:00.251Z,7.72
2023-02-03T06:06:02.844Z,7.68
2023-02-03T06:07:05.257Z,9.07
2023-02-03T06:08:08.700Z,8.10
2023-02-03T06:09:11.103Z,8.20
2023-02-03T06:10:14.137Z,8.32
2023-02-03T06:11:16.581Z,8.65
2023-02-03T06:12:18.968Z,9.00
2023-02-03T06:13:21.363Z,10.65
2023-02-03T06:14:23.746Z,9.18
2023-02-03T06:15:26.412Z,8.27
2023-02-03T06:16:29.622Z,9.55
2023-02-03T06:17:32.450Z,11.57
2023-02-03T06:18:34.956Z,10.77
2023-02-03T06:19:37.239Z,9.52
2023-02-03T06:20:39.624Z,10.50
2023-02-03T06:21:42.082Z,8.63
2023-02-03T06:22:44.740Z,10.57
2023-02-03T06:23:47.148Z,9.70
2023-02-03T06:24:49.943Z,8.75
2023-02-03T06:25:52.828Z,8.80
2023-02-03T06:26:55.517Z,7.82
2023-02-03T06:27:58.098Z,7.18
2023-02-03T06:29:00.461Z,7.53
2023-02-03T06:30:03.267Z,7.35
2023-02-03T06:31:06.477Z,7.22
2023-02-03T06:32:09.764Z,6.38
2023-02-03T06:33:12.098Z,7.45
2023-02-03T06:34:14.326Z,8.05
2023-02-03T06:35:17.507Z,9.48
2023-02-03T06:36:19.985Z,10.00
2023-02-03T06:37:23.929Z,9.18
2023-02-03T06:38:27.251Z,10.82
2023-02-03T06:39:29.850Z,15.38
2023-02-03T06:40:32.533Z,11.25
2023-02-03T06:41:34.849Z,11.98
2023-02-03T06:42:37.194Z,11.18
2023-02-03T06:43:39.662Z,9.95
2023-02-03T06:44:42.187Z,9.25
2023-02-03T06:45:48.233Z,7.15
2023-02-03T06:46:56.510Z,6.90
2023-02-03T06:47:59.337Z,6.72
2023-02-03T06:49:02.013Z,6.63
2023-02-03T06:50:04.636Z,6.07
2023-02-03T06:51:07.553Z,6.20
2023-02-03T06:52:09.977Z,6.35
2023-02-03T06:53:12.440Z,5.97
2023-02-03T06:54:15.526Z,6.38
2023-02-03T06:55:17.987Z,9.45
2023-02-03T06:56:20.472Z,9.35
2023-02-03T06:57:22.919Z,9.43
2023-02-03T06:58:25.354Z,8.68
2023-02-03T06:59:27.976Z,7.13
2023-02-03T07:00:31.301Z,7.55
2023-02-03T07:01:34.263Z,8.93
2023-02-03T07:02:37.074Z,8.40
2023-02-03T07:03:39.651Z,8.50
2023-02-03T07:04:45.132Z,8.70
2023-02-03T07:05:53.092Z,8.05
2023-02-03T07:06:58.154Z,8.15
2023-02-03T07:08:00.529Z,8.48
2023-02-03T07:09:05.327Z,8.38
2023-02-03T07:10:08.566Z,8.35
2023-02-03T07:11:11.248Z,9.80
2023-02-03T07:12:14.225Z,8.02
2023-02-03T07:13:16.725Z,9.30
2023-02-03T07:14:19.270Z,8.88
2023-02-03T07:15:21.688Z,9.32
2023-02-03T07:16:24.648Z,9.60
2023-02-03T07:17:27.225Z,9.05
2023-02-03T07:18:46.430Z,9.00
2023-02-03T07:19:50.586Z,10.23
2023-02-03T07:20:53.155Z,10.05
2023-02-03T07:21:55.987Z,10.60
2023-02-03T07:23:24.896Z,10.98
2023-02-03T07:24:27.801Z,8.85
2023-02-03T07:25:31.671Z,7.22
2023-02-03T07:26:34.220Z,6.90
2023-02-03T07:27:37.267Z,6.70
2023-02-03T07:28:39.889Z,4.88
2023-02-03T07:29:42.415Z,5.35
2023-02-03T07:30:44.897Z,4.93
2023-02-03T07:31:47.492Z,5.60
2023-02-03T07:32:54.306Z,5.20
2023-02-03T07:33:57.761Z,5.05
2023-02-03T07:35:01.484Z,5.78
2023-02-03T07:36:04.696Z,5.95
2023-02-03T07:37:07.492Z,6.57
2023-02-03T07:38:10.746Z,6.32
2023-02-03T07:39:13.314Z,7.15
2023-02-03T07:40:17.599Z,6.95
2023-02-03T07:41:20.222Z,6.57
2023-02-03T07:42:23.007Z,7.22
2023-02-03T07:43:27.365Z,6.40
2023-02-03T07:44:30.090Z,7.03
2023-02-03T07:45:32.713Z,7.35
2023-02-03T07:46:36.821Z,6.80
2023-02-03T07:48:50.266Z,6.00
2023-02-03T07:49:52.748Z,6.72
2023-02-03T07:50:55.302Z,6.72
2023-02-03T07:51:57.843Z,7.28
2023-02-03T07:53:01.427Z,6.85
2023-02-03T07:54:04.335Z,6.63
2023-02-03T07:55:07.350Z,6.25
2023-02-03T07:56:11.944Z,9.10
2023-02-03T07:57:14.561Z,5.40
2023-02-03T07:58:17.347Z,4.82
2023-02-03T07:59:19.886Z,5.07
2023-02-03T08:00:22.565Z,5.93
2023-02-03T08:01:26.229Z,4.72
2023-02-03T08:02:29.462Z,5.82
2023-02-03T08:03:31.941Z,5.90
2023-02-03T08:04:34.567Z,5.85
2023-02-03T08:05:37.125Z,6.70
2023-02-03T08:06:40.155Z,7.72
2023-02-03T08:07:43.453Z,7.75
2023-02-03T08:08:45.945Z,8.02
2023-02-03T08:09:48.602Z,7.82
2023-02-03T08:10:51.196Z,7.35
2023-02-03T08:11:53.859Z,7.05
2023-02-03T08:12:57.230Z,7.00
2023-02-03T08:13:59.726Z,7.10
2023-02-03T08:15:02.408Z,9.95
2023-02-03T08:16:05.950Z,8.02
2023-02-03T08:17:08.889Z,7.88
2023-02-03T08:18:13.475Z,8.75
2023-02-03T08:19:16.213Z,11.50
2023-02-03T08:20:19.037Z,11.32
2023-02-03T08:21:22.683Z,9.45
2023-02-03T08:22:25.378Z,8.60
2023-02-03T08:23:27.957Z,8.40
2023-02-03T08:24:30.391Z,8.40
2023-02-03T08:25:33.022Z,11.00
2023-02-03T08:26:39.395Z,7.35
2023-02-03T08:27:42.285Z,7.68
2023-02-03T08:28:49.430Z,6.35
2023-02-03T08:29:52.240Z,5.60
2023-02-03T08:30:55.312Z,4.65
2023-02-03T08:31:58.929Z,4.88
2023-02-03T08:33:01.495Z,4.65
2023-02-03T08:34:12.702Z,5.32
2023-02-03T08:35:15.642Z,5.53
2023-02-03T08:36:18.112Z,4.88
2023-02-03T08:37:24.817Z,5.90
2023-02-03T08:38:27.823Z,5.75
2023-02-03T08:39:30.461Z,5.82
2023-02-03T08:40:33.071Z,4.78
2023-02-03T08:41:35.724Z,5.63
2023-02-03T08:42:38.372Z,4.30
2023-02-03T08:43:43.001Z,5.90
2023-02-03T08:44:49.473Z,6.05
2023-02-03T08:45:52.061Z,7.10
2023-02-03T08:46:54.761Z,8.38
2023-02-03T08:47:57.757Z,7.63
2023-02-03T08:49:03.036Z,6.38
2023-02-03T08:50:08.318Z,5.10
2023-02-03T08:51:16.909Z,7.28
2023-02-03T08:52:21.599Z,8.82
2023-02-03T08:53:24.311Z,8.95
2023-02-03T08:54:27.040Z,8.57
2023-02-03T08:55:29.652Z,7.65
2023-02-03T08:56:34.328Z,11.23
2023-02-03T08:57:36.909Z,10.05
2023-02-03T08:58:39.766Z,15.50
2023-02-03T08:59:43.694Z,17.13
2023-02-03T09:00:49.150Z,17.15
2023-02-03T09:01:53.376Z,17.60
2023-02-03T09:03:59.268Z,14.15
2023-02-03T09:05:02.074Z,15.57
2023-02-03T09:06:05.943Z,18.80
2023-02-03T09:07:08.820Z,18.65
2023-02-03T09:08:11.489Z,13.77
2023-02-03T09:09:14.797Z,13.93
2023-02-03T09:10:17.643Z,14.27
2023-02-03T09:11:20.230Z,9.77
2023-02-03T09:12:48.651Z,9.38
2023-02-03T09:13:51.407Z,11.25
2023-02-03T09:14:53.928Z,6.22
2023-02-03T09:16:00.912Z,6.50
2023-02-03T09:17:05.250Z,7.10
2023-02-03T09:18:07.713Z,7.65
2023-02-03T09:19:10.686Z,9.50
2023-02-03T09:20:16.439Z,12.90
2023-02-03T09:21:33.005Z,13.18
2023-02-03T09:22:39.847Z,12.35
2023-02-03T09:23:43.161Z,14.50
2023-02-03T09:24:45.606Z,10.10
2023-02-03T09:28:26.098Z,6.13
2023-02-03T09:29:37.875Z,11.30
2023-02-03T09:30:48.212Z,10.50
2023-02-03T09:32:27.186Z,14.80
2023-02-03T09:33:38.026Z,8.27
2023-02-03T09:35:31.237Z,7.25
2023-02-03T09:36:37.856Z,7.20
2023-02-03T09:37:40.508Z,8.90
2023-02-03T09:38:43.632Z,7.55
2023-02-03T09:39:46.352Z,15.45
2023-02-03T09:41:10.641Z,15.40
2023-02-03T09:42:45.042Z,9.60
2023-02-03T09:44:08.919Z,17.85
2023-02-03T09:45:18.262Z,9.73
2023-02-03T09:46:25.827Z,10.60
2023-02-03T09:47:33.477Z,7.72
2023-02-03T09:48:43.615Z,7.85
2023-02-03T09:49:50.539Z,7.40
2023-02-03T09:50:53.954Z,8.13
2023-02-03T09:52:02.824Z,7.75
2023-02-03T09:53:18.237Z,8.35
2023-02-03T09:54:29.297Z,8.98
2023-02-03T09:55:41.759Z,6.60
2023-02-03T09:56:52.532Z,5.20
2023-02-03T09:58:03.341Z,6.38
2023-02-03T09:59:06.692Z,16.30
2023-02-03T10:00:21.140Z,12.57
2023-02-03T10:01:29.323Z,14.60
2023-02-03T10:02:49.071Z,13.50
2023-02-03T10:04:19.806Z,12.07
2023-02-03T10:05:53.861Z,6.95
2023-02-03T10:07:07.460Z,5.53
2023-02-03T10:08:24.759Z,5.57
2023-02-03T10:09:53.870Z,5.72
2023-02-03T10:11:10.043Z,6.60
2023-02-03T10:12:12.616Z,5.25
2023-02-03T10:13:26.949Z,6.28
2023-02-03T10:15:08.002Z,5.32
2023-02-03T10:16:25.660Z,5.68
2023-02-03T10:17:33.509Z,5.78
2023-02-03T10:18:51.136Z,7.40
2023-02-03T10:20:22.362Z,6.63
2023-02-03T10:21:36.657Z,6.53
2023-02-03T10:22:48.219Z,5.68
2023-02-03T10:23:51.655Z,5.30
2023-02-03T10:24:57.788Z,4.80
2023-02-03T10:26:03.741Z,4.63
2023-02-03T10:27:20.128Z,4.25
2023-02-03T10:28:35.769Z,4.20
2023-02-03T10:29:45.775Z,4.70
2023-02-03T10:30:57.187Z,3.90
2023-02-03T10:32:00.591Z,4.68
2023-02-03T10:33:15.029Z,4.90
2023-02-03T10:34:20.048Z,4.20
2023-02-03T10:35:33.531Z,4.13
2023-02-03T10:36:38.906Z,3.90
2023-02-03T10:37:51.996Z,5.60
2023-02-03T10:39:23.723Z,5.35
2023-02-03T10:40:29.674Z,4.13
2023-02-03T10:41:33.884Z,7.20
2023-02-03T10:42:55.067Z,7.68
2023-02-03T10:43:58.822Z,7.03
2023-02-03T10:45:03.785Z,5.47
2023-02-03T10:46:06.418Z,3.78
2023-02-03T10:47:24.871Z,4.43
2023-02-03T10:48:28.104Z,3.38
2023-02-03T10:49:30.844Z,3.63
2023-02-03T10:50:35.628Z,4.28
2023-02-03T10:51:43.649Z,4.18
2023-02-03T10:52:46.626Z,4.25
2023-02-03T10:53:53.167Z,4.15
2023-02-03T10:54:56.714Z,3.45
2023-02-03T10:56:15.437Z,2.92
2023-02-03T10:57:18.256Z,3.78
2023-02-03T10:58:28.045Z,3.22
2023-02-03T10:59:34.859Z,3.38
2023-02-03T11:00:37.948Z,2.55
2023-02-03T11:01:44.909Z,4.78
2023-02-03T11:02:57.177Z,3.95
2023-02-03T11:04:04.048Z,3.95
2023-02-03T11:05:10.992Z,4.85
2023-02-03T11:06:16.470Z,3.42
2023-02-03T11:07:30.587Z,2.85
2023-02-03T11:08:34.742Z,2.72
2023-02-03T11:10:43.384Z,2.83
2023-02-03T11:11:45.870Z,3.88
2023-02-03T11:12:48.730Z,2.90
2023-02-03T11:14:03.225Z,3.47
2023-02-03T11:15:06.397Z,3.45
2023-02-03T11:16:18.584Z,5.05
2023-02-03T11:17:30.344Z,3.45
2023-02-03T11:18:56.096Z,3.13
2023-02-03T11:20:17.168Z,2.88
2023-02-03T11:21:22.884Z,3.28
2023-02-03T11:22:38.199Z,3.03
2023-02-03T11:23:50.502Z,3.25
2023-02-03T11:24:53.377Z,3.80
2023-02-03T11:25:56.070Z,3.70
2023-02-03T11:27:10.649Z,4.53
2023-02-03T11:28:36.302Z,4.63
2023-02-03T11:29:43.731Z,4.03
2023-02-03T11:30:46.391Z,4.32
2023-02-03T11:31:55.626Z,4.05
2023-02-03T11:33:01.842Z,3.83
2023-02-03T11:34:16.527Z,4.25
2023-02-03T11:35:24.062Z,4.32
2023-02-03T11:36:34.740Z,4.20
2023-02-03T11:37:52.254Z,4.35
2023-02-03T11:39:29.287Z,3.55
2023-02-03T11:40:34.638Z,2.80
2023-02-03T11:41:39.295Z,3.83
2023-02-03T11:42:44.288Z,3.33
2023-02-03T11:43:47.278Z,3.42
2023-02-03T11:44:50.444Z,2.90
2023-02-03T11:45:54.586Z,3.85
2023-02-03T11:47:07.746Z,3.33
2023-02-03T11:48:50.826Z,3.58
2023-02-03T11:50:39.991Z,3.88
2023-02-03T11:52:01.487Z,3.00
2023-02-03T11:53:25.768Z,3.38
2023-02-03T11:54:47.360Z,3.33
2023-02-03T11:55:53.836Z,2.58
2023-02-03T11:57:09.769Z,2.10
2023-02-03T11:58:30.667Z,2.67
2023-02-03T11:59:52.294Z,2.88
2023-02-03T12:01:36.430Z,3.70
2023-02-03T12:02:51.058Z,2.90
2023-02-03T12:04:14.272Z,2.92
2023-02-03T12:07:12.695Z,3.67
2023-02-03T12:08:42.870Z,4.10
2023-02-03T12:10:02.848Z,3.40
2023-02-03T12:11:27.210Z,3.00
2023-02-03T12:12:53.612Z,3.30
2023-02-03T12:14:44.080Z,3.33
2023-02-03T12:16:09.940Z,4.57
2023-02-03T12:17:23.888Z,4.20
2023-02-03T12:19:01.947Z,3.63
2023-02-03T12:20:26.712Z,3.97
2023-02-03T12:21:38.680Z,3.65
2023-02-03T12:23:10.451Z,4.80
2023-02-03T12:24:57.943Z,4.50
2023-02-03T12:26:18.648Z,4.15
2023-02-03T12:27:25.589Z,4.82
2023-02-03T12:28:50.793Z,3.75
2023-02-03T12:30:09.560Z,3.90
2023-02-03T12:31:15.317Z,3.50
2023-02-03T12:32:27.082Z,4.30
2023-02-03T12:33:38.686Z,3.05
2023-02-03T12:34:56.250Z,3.92
2023-02-03T12:36:24.429Z,4.28
2023-02-03T12:37:50.452Z,3.50
2023-02-03T12:39:13.054Z,3.20
2023-02-03T12:40:23.158Z,4.20
2023-02-03T12:41:40.378Z,5.32
2023-02-03T12:42:50.425Z,5.82
2023-02-03T12:43:58.611Z,4.15
2023-02-03T12:45:22.612Z,4.05
2023-02-03T12:46:36.961Z,4.10
2023-02-03T12:47:52.862Z,3.97
2023-02-03T12:49:01.503Z,3.53
2023-02-03T12:50:13.619Z,4.40
2023-02-03T12:51:40.619Z,4.78
2023-02-03T12:52:53.382Z,3.78
2023-02-03T12:54:03.044Z,3.95
2023-02-03T12:55:15.724Z,5.30
2023-02-03T12:56:25.948Z,2.58
2023-02-03T12:57:55.839Z,3.78
2023-02-03T12:59:05.861Z,4.18
2023-02-03T13:00:36.856Z,3.03
2023-02-03T13:02:03.624Z,1.77
2023-02-03T13:03:25.360Z,2.45
2023-02-03T13:04:41.429Z,2.15
2023-02-03T13:05:50.484Z,2.30
2023-02-03T13:07:17.842Z,3.47
2023-02-03T13:08:50.245Z,3.15
2023-02-03T13:10:11.233Z,3.22
2023-02-03T13:11:24.920Z,2.85
2023-02-03T13:12:35.523Z,3.45
2023-02-03T13:13:48.507Z,4.22
2023-02-03T13:15:16.477Z,3.47
2023-02-03T13:16:25.314Z,4.20
2023-02-03T13:17:51.619Z,5.75
2023-02-03T13:19:00.157Z,4.03
2023-02-03T13:20:12.569Z,3.70
2023-02-03T13:21:15.280Z,4.38
2023-02-03T13:22:19.179Z,5.10
2023-02-03T13:23:23.125Z,5.32
2023-02-03T13:24:28.537Z,5.35
2023-02-03T13:25:59.981Z,7.25
2023-02-03T13:27:20.665Z,4.32
2023-02-03T13:28:53.464Z,6.32
2023-02-03T13:30:04.677Z,4.03
2023-02-03T13:31:41.022Z,4.45
2023-02-03T13:32:58.874Z,3.28
2023-02-03T13:34:07.327Z,4.93
2023-02-03T13:35:33.784Z,4.47
2023-02-03T13:37:08.136Z,5.10
2023-02-03T13:38:29.514Z,5.22
2023-02-03T13:39:55.758Z,5.25
2023-02-03T13:41:10.865Z,5.97
2023-02-03T13:42:26.491Z,6.50
2023-02-03T13:43:38.549Z,4.35
2023-02-03T13:44:44.015Z,4.55
2023-02-03T13:45:50.383Z,5.80
2023-02-03T13:46:53.476Z,5.22
2023-02-03T13:48:05.861Z,5.40
2023-02-03T13:49:09.784Z,5.60
2023-02-03T13:50:31.045Z,4.45
2023-02-03T13:51:37.976Z,4.53
2023-02-03T13:52:57.220Z,4.18
2023-02-03T13:54:14.597Z,4.82
2023-02-03T13:55:31.036Z,6.35
2023-02-03T13:56:34.326Z,5.25
2023-02-03T13:57:39.042Z,5.40
2023-02-03T13:58:41.595Z,4.88
2023-02-03T13:59:49.485Z,4.15
2023-02-03T14:00:52.032Z,4.38
2023-02-03T14:02:20.149Z,4.80
2023-02-03T14:03:25.743Z,4.20
2023-02-03T14:04:28.519Z,4.15
2023-02-03T14:05:44.081Z,3.80
2023-02-03T14:06:49.646Z,3.17
2023-02-03T14:07:52.290Z,2.55
2023-02-03T14:08:59.806Z,2.90
2023-02-03T14:10:14.463Z,2.60
2023-02-03T14:11:35.404Z,2.85
2023-02-03T14:12:40.467Z,2.50
2023-02-03T14:13:42.966Z,3.67
2023-02-03T14:15:03.397Z,2.80
2023-02-03T14:16:24.839Z,3.58
2023-02-03T14:17:36.428Z,3.40
2023-02-03T14:18:46.401Z,3.03
2023-02-03T14:19:55.112Z,2.60
2023-02-03T14:21:11.704Z,2.10
2023-02-03T14:22:39.791Z,3.67
2023-02-03T14:24:13.550Z,2.90
2023-02-03T14:25:19.465Z,3.67
2023-02-03T14:26:31.092Z,3.47
2023-02-03T14:27:33.891Z,4.13
2023-02-03T14:28:42.522Z,4.55
2023-02-03T14:29:45.166Z,4.35
2023-02-03T14:31:05.869Z,3.95
2023-02-03T14:32:10.862Z,4.47
2023-02-03T14:33:13.469Z,3.72
2023-02-03T14:34:17.433Z,4.20
2023-02-03T14:35:24.053Z,4.90
2023-02-03T14:36:26.642Z,4.90
2023-02-03T14:37:31.666Z,3.95
2023-02-03T14:38:34.694Z,5.22
2023-02-03T14:39:55.534Z,5.10
2023-02-03T14:41:03.722Z,3.88
2023-02-03T14:42:22.508Z,4.75
2023-02-03T14:43:40.312Z,5.22
2023-02-03T14:44:54.615Z,4.68
2023-02-03T14:46:17.967Z,5.07
2023-02-03T14:47:32.890Z,5.07
2023-02-03T14:49:20.972Z,5.57
2023-02-03T14:50:39.273Z,4.75
2023-02-03T14:52:09.150Z,4.38
2023-02-03T14:53:31.389Z,4.15
2023-02-03T14:55:04.864Z,3.83
2023-02-03T14:56:17.462Z,4.10
2023-02-03T14:57:39.046Z,2.92
2023-02-03T14:58:49.216Z,3.03
2023-02-03T14:59:54.737Z,3.20
2023-02-03T15:00:58.092Z,3.17
2023-02-03T15:02:03.703Z,4.10
2023-02-03T15:03:11.706Z,4.03
2023-02-03T15:04:14.392Z,3.53
2023-02-03T15:05:19.656Z,4.65
2023-02-03T15:06:53.396Z,4.53
2023-02-03T15:07:56.332Z,4.75
2023-02-03T15:09:00.513Z,5.13
2023-02-03T15:10:04.437Z,5.03
2023-02-03T15:11:25.361Z,5.60
2023-02-03T15:12:29.480Z,4.65
2023-02-03T15:13:33.501Z,5.82
2023-02-03T15:14:36.093Z,6.60
2023-02-03T15:15:39.477Z,6.95
2023-02-03T15:16:44.540Z,7.07